sensor_id;sensor_type;location;lat;lon;timestamp;P1;durP1;ratioP1;P2;durP2;ratioP2
60726;SDS011;46577;49.004;12.120;2023-07-29T00:01:04;6.20;;;4.77;;
60726;SDS011;46577;49.004;12.120;2023-07-29T00:03:30;8.53;;;5.03;;
60726;SDS011;46577;49.004;12.120;2023-07-29T00:05:57;9.40;;;7.10;;
60726;SDS011;46577;49.004;12.120;2023-07-29T00:08:23;10.63;;;4.90;;
60726;SDS011;46577;49.004;12.120;2023-07-29T00:10:49;6.20;;;4.90;;
60726;SDS011;46577;49.004;12.120;2023-07-29T00:13:15;6.77;;;4.70;;
60726;SDS011;46577;49.004;12.120;2023-07-29T00:15:41;12.23;;;5.40;;
60726;SDS011;46577;49.004;12.120;2023-07-29T00:18:07;6.20;;;4.93;;
60726;SDS011;46577;49.004;12.120;2023-07-29T00:20:33;8.63;;;4.93;;
60726;SDS011;46577;49.004;12.120;2023-07-29T00:22:59;10.17;;;4.70;;
60726;SDS011;46577;49.004;12.120;2023-07-29T00:25:26;6.33;;;4.90;;
60726;SDS011;46577;49.004;12.120;2023-07-29T00:27:54;4.87;;;4.37;;
60726;SDS011;46577;49.004;12.120;2023-07-29T00:30:20;5.27;;;4.50;;
60726;SDS011;46577;49.004;12.120;2023-07-29T00:32:46;6.23;;;5.20;;
60726;SDS011;46577;49.004;12.120;2023-07-29T00:35:12;5.87;;;5.03;;
60726;SDS011;46577;49.004;12.120;2023-07-29T00:37:38;5.70;;;4.80;;
60726;SDS011;46577;49.004;12.120;2023-07-29T00:40:09;4.93;;;4.27;;
60726;SDS011;46577;49.004;12.120;2023-07-29T00:42:38;7.13;;;3.77;;
60726;SDS011;46577;49.004;12.120;2023-07-29T00:45:04;4.43;;;4.00;;
60726;SDS011;46577;49.004;12.120;2023-07-29T00:47:32;5.47;;;4.43;;
60726;SDS011;46577;49.004;12.120;2023-07-29T00:49:58;5.60;;;3.87;;
60726;SDS011;46577;49.004;12.120;2023-07-29T00:52:24;7.33;;;4.57;;
60726;SDS011;46577;49.004;12.120;2023-07-29T00:54:50;5.10;;;4.00;;
60726;SDS011;46577;49.004;12.120;2023-07-29T00:57:16;5.00;;;4.27;;
60726;SDS011;46577;49.004;12.120;2023-07-29T00:59:43;5.40;;;4.83;;
60726;SDS011;46577;49.004;12.120;2023-07-29T01:02:09;5.33;;;4.37;;
60726;SDS011;46577;49.004;12.120;2023-07-29T01:04:35;6.03;;;4.93;;
60726;SDS011;46577;49.004;12.120;2023-07-29T01:12:15;7.53;;;5.93;;
60726;SDS011;46577;49.004;12.120;2023-07-29T01:17:15;8.60;;;6.30;;
60726;SDS011;46577;49.004;12.120;2023-07-29T01:19:53;14.10;;;7.63;;
60726;SDS011;46577;49.004;12.120;2023-07-29T01:22:21;9.40;;;7.60;;
60726;SDS011;46577;49.004;12.120;2023-07-29T01:24:48;8.90;;;7.47;;
60726;SDS011;46577;49.004;12.120;2023-07-29T01:27:14;15.30;;;9.13;;
60726;SDS011;46577;49.004;12.120;2023-07-29T01:29:40;11.37;;;9.43;;
60726;SDS011;46577;49.004;12.120;2023-07-29T01:32:41;13.00;;;9.73;;
60726;SDS011;46577;49.004;12.120;2023-07-29T01:37:43;17.43;;;10.20;;
60726;SDS011;46577;49.004;12.120;2023-07-29T01:40:10;14.70;;;10.30;;
60726;SDS011;46577;49.004;12.120;2023-07-29T01:42:36;15.27;;;10.97;;
60726;SDS011;46577;49.004;12.120;2023-07-29T01:45:03;14.90;;;11.83;;
60726;SDS011;46577;49.004;12.120;2023-07-29T01:47:30;17.13;;;12.73;;
60726;SDS011;46577;49.004;12.120;2023-07-29T01:49:56;16.53;;;12.30;;
60726;SDS011;46577;49.004;12.120;2023-07-29T01:52:22;14.43;;;11.80;;
60726;SDS011;46577;49.004;12.120;2023-07-29T01:54:48;17.63;;;13.37;;
60726;SDS011;46577;49.004;12.120;2023-07-29T01:57:14;13.43;;;11.50;;
60726;SDS011;46577;49.004;12.120;2023-07-29T01:59:40;16.80;;;12.40;;
60726;SDS011;46577;49.004;12.120;2023-07-29T02:02:06;19.50;;;13.23;;
60726;SDS011;46577;49.004;12.120;2023-07-29T02:04:32;17.77;;;13.37;;
60726;SDS011;46577;49.004;12.120;2023-07-29T02:06:58;21.10;;;14.53;;
60726;SDS011;46577;49.004;12.120;2023-07-29T02:09:24;18.90;;;15.03;;
60726;SDS011;46577;49.004;12.120;2023-07-29T02:11:50;19.97;;;15.50;;
60726;SDS011;46577;49.004;12.120;2023-07-29T02:14:16;17.87;;;14.73;;
60726;SDS011;46577;49.004;12.120;2023-07-29T02:16:42;22.20;;;16.30;;
60726;SDS011;46577;49.004;12.120;2023-07-29T02:19:08;20.60;;;15.90;;
60726;SDS011;46577;49.004;12.120;2023-07-29T02:21:34;23.10;;;17.23;;
60726;SDS011;46577;49.004;12.120;2023-07-29T02:24:00;24.00;;;17.57;;
60726;SDS011;46577;49.004;12.120;2023-07-29T02:26:26;23.00;;;18.20;;
60726;SDS011;46577;49.004;12.120;2023-07-29T02:28:52;21.83;;;15.90;;
60726;SDS011;46577;49.004;12.120;2023-07-29T02:31:22;26.23;;;17.13;;
60726;SDS011;46577;49.004;12.120;2023-07-29T02:33:48;26.00;;;18.90;;
60726;SDS011;46577;49.004;12.120;2023-07-29T02:36:14;26.20;;;19.73;;
60726;SDS011;46577;49.004;12.120;2023-07-29T02:38:41;29.83;;;20.73;;
60726;SDS011;46577;49.004;12.120;2023-07-29T02:41:10;29.53;;;20.90;;
60726;SDS011;46577;49.004;12.120;2023-07-29T02:43:41;25.17;;;18.33;;
60726;SDS011;46577;49.004;12.120;2023-07-29T02:46:07;32.07;;;20.87;;
60726;SDS011;46577;49.004;12.120;2023-07-29T02:48:33;28.77;;;20.47;;
60726;SDS011;46577;49.004;12.120;2023-07-29T02:50:59;29.23;;;21.60;;
60726;SDS011;46577;49.004;12.120;2023-07-29T02:53:25;34.40;;;20.13;;
60726;SDS011;46577;49.004;12.120;2023-07-29T02:55:51;35.73;;;22.17;;
60726;SDS011;46577;49.004;12.120;2023-07-29T02:58:17;29.20;;;21.13;;
60726;SDS011;46577;49.004;12.120;2023-07-29T03:00:43;37.93;;;23.63;;
60726;SDS011;46577;49.004;12.120;2023-07-29T03:03:09;31.10;;;20.93;;
60726;SDS011;46577;49.004;12.120;2023-07-29T03:05:35;38.13;;;22.47;;
60726;SDS011;46577;49.004;12.120;2023-07-29T03:08:03;45.67;;;23.97;;
60726;SDS011;46577;49.004;12.120;2023-07-29T03:10:29;35.20;;;21.70;;
60726;SDS011;46577;49.004;12.120;2023-07-29T03:12:55;32.67;;;21.80;;
60726;SDS011;46577;49.004;12.120;2023-07-29T03:15:24;32.90;;;23.23;;
60726;SDS011;46577;49.004;12.120;2023-07-29T03:17:50;32.37;;;21.40;;
60726;SDS011;46577;49.004;12.120;2023-07-29T03:20:16;34.80;;;22.17;;
60726;SDS011;46577;49.004;12.120;2023-07-29T03:22:43;39.67;;;22.00;;
60726;SDS011;46577;49.004;12.120;2023-07-29T03:25:09;36.20;;;21.90;;
60726;SDS011;46577;49.004;12.120;2023-07-29T03:27:35;38.87;;;22.30;;
60726;SDS011;46577;49.004;12.120;2023-07-29T03:30:05;32.77;;;21.30;;
60726;SDS011;46577;49.004;12.120;2023-07-29T03:32:31;33.53;;;21.73;;
60726;SDS011;46577;49.004;12.120;2023-07-29T03:34:57;36.37;;;22.37;;
60726;SDS011;46577;49.004;12.120;2023-07-29T03:37:23;41.13;;;22.97;;
60726;SDS011;46577;49.004;12.120;2023-07-29T03:39:49;36.13;;;22.80;;
60726;SDS011;46577;49.004;12.120;2023-07-29T03:42:17;31.13;;;21.93;;
60726;SDS011;46577;49.004;12.120;2023-07-29T03:44:43;39.47;;;22.10;;
60726;SDS011;46577;49.004;12.120;2023-07-29T03:47:09;34.87;;;20.90;;
60726;SDS011;46577;49.004;12.120;2023-07-29T03:49:35;37.40;;;21.57;;
60726;SDS011;46577;49.004;12.120;2023-07-29T03:52:01;40.20;;;22.13;;
60726;SDS011;46577;49.004;12.120;2023-07-29T03:54:27;36.60;;;21.90;;
60726;SDS011;46577;49.004;12.120;2023-07-29T03:56:53;37.57;;;21.80;;
60726;SDS011;46577;49.004;12.120;2023-07-29T03:59:19;41.03;;;23.50;;
60726;SDS011;46577;49.004;12.120;2023-07-29T04:01:47;38.97;;;23.00;;
60726;SDS011;46577;49.004;12.120;2023-07-29T04:04:13;32.97;;;21.50;;
60726;SDS011;46577;49.004;12.120;2023-07-29T04:06:39;32.23;;;20.70;;
60726;SDS011;46577;49.004;12.120;2023-07-29T04:09:05;36.67;;;22.60;;
60726;SDS011;46577;49.004;12.120;2023-07-29T04:11:32;39.27;;;22.10;;
60726;SDS011;46577;49.004;12.120;2023-07-29T04:13:58;41.23;;;21.80;;
60726;SDS011;46577;49.004;12.120;2023-07-29T04:16:24;36.60;;;21.53;;
60726;SDS011;46577;49.004;12.120;2023-07-29T04:18:50;35.60;;;21.03;;
60726;SDS011;46577;49.004;12.120;2023-07-29T04:21:16;31.87;;;21.30;;
60726;SDS011;46577;49.004;12.120;2023-07-29T04:23:42;33.87;;;20.70;;
60726;SDS011;46577;49.004;12.120;2023-07-29T04:26:08;42.40;;;21.13;;
60726;SDS011;46577;49.004;12.120;2023-07-29T04:28:34;35.43;;;19.80;;
60726;SDS011;46577;49.004;12.120;2023-07-29T04:31:00;29.03;;;16.90;;
60726;SDS011;46577;49.004;12.120;2023-07-29T04:33:26;29.60;;;17.20;;
60726;SDS011;46577;49.004;12.120;2023-07-29T04:35:52;23.97;;;17.30;;
60726;SDS011;46577;49.004;12.120;2023-07-29T04:38:18;27.43;;;14.97;;
60726;SDS011;46577;49.004;12.120;2023-07-29T04:40:44;22.80;;;15.80;;
60726;SDS011;46577;49.004;12.120;2023-07-29T04:43:10;17.93;;;13.97;;
60726;SDS011;46577;49.004;12.120;2023-07-29T04:45:36;19.30;;;14.73;;
60726;SDS011;46577;49.004;12.120;2023-07-29T04:48:07;21.00;;;14.77;;
60726;SDS011;46577;49.004;12.120;2023-07-29T04:50:33;24.93;;;15.50;;
60726;SDS011;46577;49.004;12.120;2023-07-29T04:52:59;21.73;;;16.40;;
60726;SDS011;46577;49.004;12.120;2023-07-29T04:55:25;22.97;;;16.03;;
60726;SDS011;46577;49.004;12.120;2023-07-29T04:57:51;19.67;;;14.83;;
60726;SDS011;46577;49.004;12.120;2023-07-29T05:00:17;19.47;;;14.40;;
60726;SDS011;46577;49.004;12.120;2023-07-29T05:02:43;17.20;;;13.50;;
60726;SDS011;46577;49.004;12.120;2023-07-29T05:05:09;17.20;;;13.20;;
60726;SDS011;46577;49.004;12.120;2023-07-29T05:07:35;19.80;;;14.73;;
60726;SDS011;46577;49.004;12.120;2023-07-29T05:10:01;15.40;;;11.87;;
60726;SDS011;46577;49.004;12.120;2023-07-29T05:12:28;16.53;;;11.00;;
60726;SDS011;46577;49.004;12.120;2023-07-29T05:14:54;12.53;;;9.27;;
60726;SDS011;46577;49.004;12.120;2023-07-29T05:17:21;13.83;;;8.10;;
60726;SDS011;46577;49.004;12.120;2023-07-29T05:19:47;11.73;;;7.60;;
60726;SDS011;46577;49.004;12.120;2023-07-29T05:22:13;9.43;;;6.83;;
60726;SDS011;46577;49.004;12.120;2023-07-29T05:24:39;7.73;;;6.47;;
60726;SDS011;46577;49.004;12.120;2023-07-29T05:27:05;11.20;;;6.70;;
60726;SDS011;46577;49.004;12.120;2023-07-29T05:29:33;8.60;;;5.00;;
60726;SDS011;46577;49.004;12.120;2023-07-29T05:31:59;10.50;;;5.00;;
60726;SDS011;46577;49.004;12.120;2023-07-29T05:34:25;6.73;;;6.03;;
60726;SDS011;46577;49.004;12.120;2023-07-29T05:36:51;6.73;;;4.60;;
60726;SDS011;46577;49.004;12.120;2023-07-29T05:39:17;6.97;;;4.83;;
60726;SDS011;46577;49.004;12.120;2023-07-29T05:41:43;7.07;;;4.77;;
60726;SDS011;46577;49.004;12.120;2023-07-29T05:44:09;5.73;;;3.70;;
60726;SDS011;46577;49.004;12.120;2023-07-29T05:46:35;11.10;;;5.20;;
60726;SDS011;46577;49.004;12.120;2023-07-29T05:49:01;4.20;;;3.80;;
60726;SDS011;46577;49.004;12.120;2023-07-29T05:51:27;9.23;;;4.17;;
60726;SDS011;46577;49.004;12.120;2023-07-29T05:53:53;6.87;;;4.20;;
60726;SDS011;46577;49.004;12.120;2023-07-29T05:56:20;7.03;;;4.47;;
60726;SDS011;46577;49.004;12.120;2023-07-29T05:58:46;5.93;;;4.50;;
60726;SDS011;46577;49.004;12.120;2023-07-29T06:01:12;7.27;;;4.23;;
60726;SDS011;46577;49.004;12.120;2023-07-29T06:03:38;5.60;;;4.10;;
60726;SDS011;46577;49.004;12.120;2023-07-29T06:06:04;5.20;;;3.87;;
60726;SDS011;46577;49.004;12.120;2023-07-29T06:08:30;5.53;;;3.60;;
60726;SDS011;46577;49.004;12.120;2023-07-29T06:10:59;6.67;;;4.90;;
60726;SDS011;46577;49.004;12.120;2023-07-29T06:13:25;7.50;;;4.13;;
60726;SDS011;46577;49.004;12.120;2023-07-29T06:15:51;9.20;;;3.93;;
60726;SDS011;46577;49.004;12.120;2023-07-29T06:18:17;12.73;;;3.90;;
60726;SDS011;46577;49.004;12.120;2023-07-29T06:20:43;5.03;;;3.20;;
60726;SDS011;46577;49.004;12.120;2023-07-29T06:23:09;6.20;;;3.60;;
60726;SDS011;46577;49.004;12.120;2023-07-29T06:25:35;4.27;;;3.57;;
60726;SDS011;46577;49.004;12.120;2023-07-29T06:28:01;6.10;;;3.77;;
60726;SDS011;46577;49.004;12.120;2023-07-29T06:30:27;6.20;;;3.00;;
60726;SDS011;46577;49.004;12.120;2023-07-29T06:32:53;2.97;;;2.67;;
60726;SDS011;46577;49.004;12.120;2023-07-29T06:35:19;5.50;;;3.47;;
60726;SDS011;46577;49.004;12.120;2023-07-29T06:37:45;4.40;;;2.90;;
60726;SDS011;46577;49.004;12.120;2023-07-29T06:40:11;3.70;;;3.03;;
60726;SDS011;46577;49.004;12.120;2023-07-29T06:42:37;4.30;;;3.10;;
60726;SDS011;46577;49.004;12.120;2023-07-29T06:45:07;3.80;;;3.30;;
60726;SDS011;46577;49.004;12.120;2023-07-29T06:47:33;6.07;;;3.13;;
60726;SDS011;46577;49.004;12.120;2023-07-29T06:49:59;4.60;;;2.97;;
60726;SDS011;46577;49.004;12.120;2023-07-29T06:52:25;4.40;;;3.27;;
60726;SDS011;46577;49.004;12.120;2023-07-29T06:54:51;3.47;;;3.07;;
60726;SDS011;46577;49.004;12.120;2023-07-29T06:57:17;5.87;;;2.90;;
60726;SDS011;46577;49.004;12.120;2023-07-29T06:59:43;9.33;;;3.90;;
60726;SDS011;46577;49.004;12.120;2023-07-29T07:02:09;5.53;;;2.83;;
60726;SDS011;46577;49.004;12.120;2023-07-29T07:04:35;7.90;;;3.60;;
60726;SDS011;46577;49.004;12.120;2023-07-29T07:07:01;4.37;;;3.40;;
60726;SDS011;46577;49.004;12.120;2023-07-29T07:09:27;5.57;;;4.00;;
60726;SDS011;46577;49.004;12.120;2023-07-29T07:11:53;6.17;;;3.70;;
60726;SDS011;46577;49.004;12.120;2023-07-29T07:14:19;9.57;;;3.63;;
60726;SDS011;46577;49.004;12.120;2023-07-29T07:16:45;5.80;;;4.33;;
60726;SDS011;46577;49.004;12.120;2023-07-29T07:19:11;9.40;;;4.27;;
60726;SDS011;46577;49.004;12.120;2023-07-29T07:21:37;3.67;;;3.33;;
60726;SDS011;46577;49.004;12.120;2023-07-29T07:24:03;4.57;;;3.40;;
60726;SDS011;46577;49.004;12.120;2023-07-29T07:26:29;8.73;;;4.50;;
60726;SDS011;46577;49.004;12.120;2023-07-29T07:28:55;5.23;;;4.27;;
60726;SDS011;46577;49.004;12.120;2023-07-29T07:31:21;9.10;;;4.10;;
60726;SDS011;46577;49.004;12.120;2023-07-29T07:33:47;6.77;;;4.37;;
60726;SDS011;46577;49.004;12.120;2023-07-29T07:36:13;8.10;;;4.77;;
60726;SDS011;46577;49.004;12.120;2023-07-29T07:38:40;6.10;;;4.07;;
60726;SDS011;46577;49.004;12.120;2023-07-29T07:41:06;4.90;;;4.33;;
60726;SDS011;46577;49.004;12.120;2023-07-29T07:43:32;9.13;;;4.13;;
60726;SDS011;46577;49.004;12.120;2023-07-29T07:45:59;5.50;;;3.70;;
60726;SDS011;46577;49.004;12.120;2023-07-29T07:48:26;6.20;;;3.50;;
60726;SDS011;46577;49.004;12.120;2023-07-29T07:50:52;5.27;;;3.57;;
60726;SDS011;46577;49.004;12.120;2023-07-29T07:53:18;5.70;;;3.23;;
60726;SDS011;46577;49.004;12.120;2023-07-29T07:55:45;5.37;;;3.53;;
60726;SDS011;46577;49.004;12.120;2023-07-29T07:58:11;5.60;;;3.57;;
60726;SDS011;46577;49.004;12.120;2023-07-29T08:00:38;4.03;;;3.53;;
60726;SDS011;46577;49.004;12.120;2023-07-29T08:03:04;5.70;;;2.90;;
60726;SDS011;46577;49.004;12.120;2023-07-29T08:05:30;4.37;;;3.20;;
60726;SDS011;46577;49.004;12.120;2023-07-29T08:07:57;3.40;;;2.97;;
60726;SDS011;46577;49.004;12.120;2023-07-29T08:10:23;4.30;;;3.00;;
60726;SDS011;46577;49.004;12.120;2023-07-29T08:12:49;5.17;;;3.80;;
60726;SDS011;46577;49.004;12.120;2023-07-29T08:15:15;6.00;;;3.40;;
60726;SDS011;46577;49.004;12.120;2023-07-29T08:17:41;4.37;;;3.50;;
60726;SDS011;46577;49.004;12.120;2023-07-29T08:20:07;4.90;;;3.37;;
60726;SDS011;46577;49.004;12.120;2023-07-29T08:22:33;4.17;;;3.50;;
60726;SDS011;46577;49.004;12.120;2023-07-29T08:24:59;16.43;;;4.80;;
60726;SDS011;46577;49.004;12.120;2023-07-29T08:27:25;7.90;;;4.00;;
60726;SDS011;46577;49.004;12.120;2023-07-29T08:29:51;9.40;;;4.30;;
60726;SDS011;46577;49.004;12.120;2023-07-29T08:32:17;7.40;;;3.93;;
60726;SDS011;46577;49.004;12.120;2023-07-29T08:34:43;6.83;;;4.77;;
60726;SDS011;46577;49.004;12.120;2023-07-29T08:37:08;6.30;;;4.40;;
60726;SDS011;46577;49.004;12.120;2023-07-29T08:39:34;11.10;;;4.20;;
60726;SDS011;46577;49.004;12.120;2023-07-29T08:42:01;5.83;;;3.97;;
60726;SDS011;46577;49.004;12.120;2023-07-29T08:44:35;9.40;;;4.70;;
60726;SDS011;46577;49.004;12.120;2023-07-29T08:47:02;6.90;;;4.80;;
60726;SDS011;46577;49.004;12.120;2023-07-29T08:49:28;9.10;;;4.37;;
60726;SDS011;46577;49.004;12.120;2023-07-29T08:51:55;5.50;;;3.80;;
60726;SDS011;46577;49.004;12.120;2023-07-29T08:54:21;4.67;;;3.27;;
60726;SDS011;46577;49.004;12.120;2023-07-29T08:56:47;3.47;;;3.17;;
60726;SDS011;46577;49.004;12.120;2023-07-29T08:59:13;7.93;;;4.20;;
60726;SDS011;46577;49.004;12.120;2023-07-29T09:01:41;14.50;;;4.40;;
60726;SDS011;46577;49.004;12.120;2023-07-29T09:04:07;9.00;;;4.13;;
60726;SDS011;46577;49.004;12.120;2023-07-29T09:06:33;8.13;;;4.30;;
60726;SDS011;46577;49.004;12.120;2023-07-29T09:09:00;5.93;;;3.70;;
60726;SDS011;46577;49.004;12.120;2023-07-29T09:11:26;6.83;;;3.77;;
60726;SDS011;46577;49.004;12.120;2023-07-29T09:13:52;12.23;;;4.57;;
60726;SDS011;46577;49.004;12.120;2023-07-29T09:16:20;8.50;;;4.43;;
60726;SDS011;46577;49.004;12.120;2023-07-29T09:18:49;13.40;;;4.60;;
60726;SDS011;46577;49.004;12.120;2023-07-29T09:21:23;6.73;;;3.53;;
60726;SDS011;46577;49.004;12.120;2023-07-29T09:23:54;6.43;;;3.87;;
60726;SDS011;46577;49.004;12.120;2023-07-29T09:26:26;7.63;;;3.90;;
60726;SDS011;46577;49.004;12.120;2023-07-29T09:28:53;4.20;;;2.97;;
60726;SDS011;46577;49.004;12.120;2023-07-29T09:31:20;3.60;;;2.40;;
60726;SDS011;46577;49.004;12.120;2023-07-29T09:33:47;4.63;;;2.40;;
60726;SDS011;46577;49.004;12.120;2023-07-29T09:36:13;4.90;;;2.30;;
60726;SDS011;46577;49.004;12.120;2023-07-29T09:38:39;5.10;;;2.20;;
60726;SDS011;46577;49.004;12.120;2023-07-29T09:41:05;3.50;;;2.27;;
60726;SDS011;46577;49.004;12.120;2023-07-29T09:43:32;4.43;;;2.50;;
60726;SDS011;46577;49.004;12.120;2023-07-29T09:46:02;2.07;;;1.80;;
60726;SDS011;46577;49.004;12.120;2023-07-29T09:48:28;7.80;;;2.33;;
60726;SDS011;46577;49.004;12.120;2023-07-29T09:50:58;2.50;;;2.30;;
60726;SDS011;46577;49.004;12.120;2023-07-29T09:53:24;4.37;;;2.50;;
60726;SDS011;46577;49.004;12.120;2023-07-29T09:55:50;2.50;;;2.17;;
60726;SDS011;46577;49.004;12.120;2023-07-29T09:58:19;3.87;;;2.20;;
60726;SDS011;46577;49.004;12.120;2023-07-29T10:00:45;4.00;;;2.23;;
60726;SDS011;46577;49.004;12.120;2023-07-29T10:03:12;3.57;;;2.20;;
60726;SDS011;46577;49.004;12.120;2023-07-29T10:05:39;7.00;;;2.20;;
60726;SDS011;46577;49.004;12.120;2023-07-29T10:08:06;3.67;;;2.13;;
60726;SDS011;46577;49.004;12.120;2023-07-29T10:10:32;2.63;;;2.43;;
60726;SDS011;46577;49.004;12.120;2023-07-29T10:12:58;7.00;;;2.57;;
60726;SDS011;46577;49.004;12.120;2023-07-29T10:15:24;6.07;;;2.83;;
60726;SDS011;46577;49.004;12.120;2023-07-29T10:17:51;8.43;;;3.57;;
60726;SDS011;46577;49.004;12.120;2023-07-29T10:20:17;5.80;;;3.40;;
60726;SDS011;46577;49.004;12.120;2023-07-29T10:22:43;6.40;;;3.40;;
60726;SDS011;46577;49.004;12.120;2023-07-29T10:25:18;5.30;;;3.07;;
60726;SDS011;46577;49.004;12.120;2023-07-29T10:28:26;4.30;;;3.47;;
60726;SDS011;46577;49.004;12.120;2023-07-29T10:30:34;7.50;;;4.33;;
60726;SDS011;46577;49.004;12.120;2023-07-29T10:33:03;4.10;;;3.63;;
60726;SDS011;46577;49.004;12.120;2023-07-29T10:35:30;6.73;;;3.67;;
60726;SDS011;46577;49.004;12.120;2023-07-29T10:37:58;5.60;;;3.30;;
60726;SDS011;46577;49.004;12.120;2023-07-29T10:40:24;15.27;;;3.93;;
60726;SDS011;46577;49.004;12.120;2023-07-29T10:43:08;4.87;;;3.30;;
60726;SDS011;46577;49.004;12.120;2023-07-29T10:45:38;4.37;;;3.17;;
60726;SDS011;46577;49.004;12.120;2023-07-29T10:50:33;2.83;;;2.57;;
60726;SDS011;46577;49.004;12.120;2023-07-29T10:53:00;7.50;;;3.40;;
60726;SDS011;46577;49.004;12.120;2023-07-29T10:55:30;3.50;;;2.87;;
60726;SDS011;46577;49.004;12.120;2023-07-29T10:58:04;2.93;;;2.53;;
60726;SDS011;46577;49.004;12.120;2023-07-29T11:00:30;3.47;;;2.40;;
60726;SDS011;46577;49.004;12.120;2023-07-29T11:03:07;3.47;;;2.73;;
60726;SDS011;46577;49.004;12.120;2023-07-29T11:13:29;2.17;;;1.73;;
60726;SDS011;46577;49.004;12.120;2023-07-29T11:15:55;1.30;;;1.20;;
60726;SDS011;46577;49.004;12.120;2023-07-29T11:18:25;1.97;;;1.67;;
60726;SDS011;46577;49.004;12.120;2023-07-29T11:20:53;5.03;;;2.00;;
60726;SDS011;46577;49.004;12.120;2023-07-29T11:23:19;2.57;;;1.93;;
60726;SDS011;46577;49.004;12.120;2023-07-29T11:25:46;1.70;;;1.50;;
60726;SDS011;46577;49.004;12.120;2023-07-29T11:28:12;2.57;;;2.00;;
60726;SDS011;46577;49.004;12.120;2023-07-29T11:30:41;2.60;;;1.90;;
60726;SDS011;46577;49.004;12.120;2023-07-29T11:33:07;10.43;;;1.93;;
60726;SDS011;46577;49.004;12.120;2023-07-29T11:35:33;1.60;;;1.50;;
60726;SDS011;46577;49.004;12.120;2023-07-29T11:37:59;1.83;;;1.73;;
60726;SDS011;46577;49.004;12.120;2023-07-29T11:40:25;2.33;;;2.03;;
60726;SDS011;46577;49.004;12.120;2023-07-29T11:42:51;2.33;;;2.13;;
60726;SDS011;46577;49.004;12.120;2023-07-29T11:45:18;7.53;;;2.20;;
60726;SDS011;46577;49.004;12.120;2023-07-29T11:47:47;3.40;;;1.90;;
60726;SDS011;46577;49.004;12.120;2023-07-29T11:50:13;1.90;;;1.80;;
60726;SDS011;46577;49.004;12.120;2023-07-29T11:52:40;2.80;;;2.13;;
60726;SDS011;46577;49.004;12.120;2023-07-29T11:55:07;2.80;;;2.07;;
60726;SDS011;46577;49.004;12.120;2023-07-29T11:57:34;3.03;;;1.67;;
60726;SDS011;46577;49.004;12.120;2023-07-29T12:00:07;2.83;;;2.07;;
60726;SDS011;46577;49.004;12.120;2023-07-29T12:02:38;4.77;;;2.30;;
60726;SDS011;46577;49.004;12.120;2023-07-29T12:05:05;1.93;;;1.60;;
60726;SDS011;46577;49.004;12.120;2023-07-29T12:07:32;1.90;;;1.70;;
60726;SDS011;46577;49.004;12.120;2023-07-29T12:09:58;4.73;;;1.80;;
60726;SDS011;46577;49.004;12.120;2023-07-29T12:12:25;4.00;;;1.63;;
60726;SDS011;46577;49.004;12.120;2023-07-29T12:14:51;2.43;;;1.87;;
60726;SDS011;46577;49.004;12.120;2023-07-29T12:17:17;1.40;;;1.30;;
60726;SDS011;46577;49.004;12.120;2023-07-29T12:19:43;2.00;;;1.87;;
60726;SDS011;46577;49.004;12.120;2023-07-29T12:22:10;2.97;;;1.60;;
60726;SDS011;46577;49.004;12.120;2023-07-29T12:24:37;3.30;;;1.80;;
60726;SDS011;46577;49.004;12.120;2023-07-29T12:27:03;2.03;;;1.53;;
60726;SDS011;46577;49.004;12.120;2023-07-29T12:29:29;3.37;;;1.90;;
60726;SDS011;46577;49.004;12.120;2023-07-29T12:31:56;1.60;;;1.40;;
60726;SDS011;46577;49.004;12.120;2023-07-29T12:34:24;1.53;;;1.43;;
60726;SDS011;46577;49.004;12.120;2023-07-29T12:36:51;3.13;;;1.40;;
60726;SDS011;46577;49.004;12.120;2023-07-29T12:41:49;1.10;;;1.00;;
60726;SDS011;46577;49.004;12.120;2023-07-29T12:44:15;2.00;;;1.37;;
60726;SDS011;46577;49.004;12.120;2023-07-29T12:46:42;1.80;;;1.43;;
60726;SDS011;46577;49.004;12.120;2023-07-29T12:49:08;3.00;;;1.30;;
60726;SDS011;46577;49.004;12.120;2023-07-29T12:51:34;2.03;;;1.77;;
60726;SDS011;46577;49.004;12.120;2023-07-29T12:54:01;2.60;;;1.50;;
60726;SDS011;46577;49.004;12.120;2023-07-29T12:56:27;2.60;;;1.60;;
60726;SDS011;46577;49.004;12.120;2023-07-29T12:58:54;1.63;;;1.53;;
60726;SDS011;46577;49.004;12.120;2023-07-29T13:01:20;2.50;;;1.60;;
60726;SDS011;46577;49.004;12.120;2023-07-29T13:03:47;1.53;;;1.43;;
60726;SDS011;46577;49.004;12.120;2023-07-29T13:06:14;2.10;;;1.50;;
60726;SDS011;46577;49.004;12.120;2023-07-29T13:08:40;1.83;;;1.70;;
60726;SDS011;46577;49.004;12.120;2023-07-29T13:11:07;1.57;;;1.47;;
60726;SDS011;46577;49.004;12.120;2023-07-29T13:13:33;2.87;;;1.83;;
60726;SDS011;46577;49.004;12.120;2023-07-29T13:15:59;2.90;;;1.67;;
60726;SDS011;46577;49.004;12.120;2023-07-29T13:18:26;1.60;;;1.50;;
60726;SDS011;46577;49.004;12.120;2023-07-29T13:20:52;2.90;;;1.57;;
60726;SDS011;46577;49.004;12.120;2023-07-29T13:23:18;1.80;;;1.63;;
60726;SDS011;46577;49.004;12.120;2023-07-29T13:25:44;1.90;;;1.70;;
60726;SDS011;46577;49.004;12.120;2023-07-29T13:28:10;4.70;;;2.30;;
60726;SDS011;46577;49.004;12.120;2023-07-29T13:30:38;2.30;;;2.03;;
60726;SDS011;46577;49.004;12.120;2023-07-29T13:33:04;1.90;;;1.80;;
60726;SDS011;46577;49.004;12.120;2023-07-29T13:35:30;2.23;;;1.97;;
60726;SDS011;46577;49.004;12.120;2023-07-29T13:37:56;2.03;;;1.50;;
60726;SDS011;46577;49.004;12.120;2023-07-29T13:40:22;1.70;;;1.60;;
60726;SDS011;46577;49.004;12.120;2023-07-29T13:42:48;2.17;;;1.97;;
60726;SDS011;46577;49.004;12.120;2023-07-29T13:45:15;7.87;;;1.90;;
60726;SDS011;46577;49.004;12.120;2023-07-29T13:47:41;3.60;;;1.97;;
60726;SDS011;46577;49.004;12.120;2023-07-29T13:50:07;1.63;;;1.47;;
60726;SDS011;46577;49.004;12.120;2023-07-29T13:52:33;1.80;;;1.30;;
60726;SDS011;46577;49.004;12.120;2023-07-29T13:54:59;2.30;;;1.70;;
60726;SDS011;46577;49.004;12.120;2023-07-29T13:57:25;2.77;;;2.10;;
60726;SDS011;46577;49.004;12.120;2023-07-29T13:59:51;2.17;;;1.70;;
60726;SDS011;46577;49.004;12.120;2023-07-29T14:02:17;1.90;;;1.80;;
60726;SDS011;46577;49.004;12.120;2023-07-29T14:04:43;2.80;;;1.93;;
60726;SDS011;46577;49.004;12.120;2023-07-29T14:07:09;1.77;;;1.57;;
60726;SDS011;46577;49.004;12.120;2023-07-29T14:09:35;3.10;;;1.67;;
60726;SDS011;46577;49.004;12.120;2023-07-29T14:12:03;2.40;;;1.70;;
60726;SDS011;46577;49.004;12.120;2023-07-29T14:14:29;1.93;;;1.50;;
60726;SDS011;46577;49.004;12.120;2023-07-29T14:16:55;1.83;;;1.63;;
60726;SDS011;46577;49.004;12.120;2023-07-29T14:19:21;2.50;;;2.30;;
60726;SDS011;46577;49.004;12.120;2023-07-29T14:21:47;2.40;;;1.77;;
60726;SDS011;46577;49.004;12.120;2023-07-29T14:24:13;3.43;;;1.60;;
60726;SDS011;46577;49.004;12.120;2023-07-29T14:26:40;2.20;;;1.90;;
60726;SDS011;46577;49.004;12.120;2023-07-29T14:29:06;2.70;;;1.80;;
60726;SDS011;46577;49.004;12.120;2023-07-29T14:31:32;1.50;;;1.40;;
60726;SDS011;46577;49.004;12.120;2023-07-29T14:33:58;1.50;;;1.30;;
60726;SDS011;46577;49.004;12.120;2023-07-29T14:36:24;1.53;;;1.37;;
60726;SDS011;46577;49.004;12.120;2023-07-29T14:38:51;2.90;;;1.43;;
60726;SDS011;46577;49.004;12.120;2023-07-29T14:41:17;1.40;;;1.30;;
60726;SDS011;46577;49.004;12.120;2023-07-29T14:43:43;1.60;;;1.50;;
60726;SDS011;46577;49.004;12.120;2023-07-29T14:46:09;1.40;;;1.30;;
60726;SDS011;46577;49.004;12.120;2023-07-29T14:48:35;2.47;;;1.63;;